Gurley, Nebraska
Current Conditions -  °F | °C
As of 7:53 PM on Thursday 27 Nov 2014 (Local Time) from KSNY Reporting Station
Clear Clear  
Wind Chill: 28°   Ceiling: Unl
Heat Index: 36°   Visibility: 10mi
Dew Point: 26°   Wind: 12mph
Humidity: 67%   Direction: 280°W
Pressure: 30.03"   Gusts: NA
Location:  41.32°N, 102.97°W
Report Text: KSNY 280253Z AUTO 28010KT 10SM CLR 02/M03 A3003 RMK AO2 SLP189 T00221033 56002
Loading
Personal Weather Stations






























Interactive Weather Map New forecast layout! Learn more

10-Day Weather Forecast

Advertisements
Track Severe Weather on mobile